createdAt,value
2023-03-14T00:00:19.340Z,99.05
2023-03-14T00:02:45.999Z,98.87
2023-03-14T00:05:12.750Z,98.48
2023-03-14T00:07:40.748Z,98.71
2023-03-14T00:10:13.627Z,98.90
2023-03-14T00:12:41.398Z,98.87
2023-03-14T00:15:09.103Z,98.67
2023-03-14T00:17:36.945Z,98.47
2023-03-14T00:20:09.457Z,98.87
2023-03-14T00:22:36.878Z,98.30
2023-03-14T00:25:04.867Z,98.38
2023-03-14T00:27:31.886Z,97.56
2023-03-14T00:29:58.646Z,97.93
2023-03-14T00:32:25.428Z,97.17
2023-03-14T00:34:52.118Z,97.37
2023-03-14T00:37:18.697Z,97.40
2023-03-14T00:39:45.315Z,96.85
2023-03-14T00:42:11.992Z,96.56
2023-03-14T00:44:38.709Z,97.07
2023-03-14T00:47:05.496Z,97.51
2023-03-14T00:49:32.241Z,97.66
2023-03-14T00:51:58.878Z,97.14
2023-03-14T00:54:25.550Z,97.57
2023-03-14T00:56:52.175Z,97.16
2023-03-14T00:59:19.084Z,96.47
2023-03-14T01:01:45.776Z,96.85
2023-03-14T01:04:12.386Z,96.90
2023-03-14T01:06:40.060Z,97.20
2023-03-14T01:09:07.085Z,96.52
2023-03-14T01:11:35.960Z,96.85
2023-03-14T01:14:03.420Z,96.75
2023-03-14T01:16:32.595Z,96.63
2023-03-14T01:18:59.472Z,96.86
2023-03-14T01:21:28.357Z,96.79
2023-03-14T01:23:56.713Z,96.59
2023-03-14T01:26:25.615Z,96.78
2023-03-14T01:28:54.634Z,96.62
2023-03-14T01:31:21.298Z,96.54
2023-03-14T01:33:48.094Z,96.46
2023-03-14T01:36:14.906Z,97.53
2023-03-14T01:38:41.971Z,96.85
2023-03-14T01:41:14.389Z,97.03
2023-03-14T01:43:41.005Z,97.60
2023-03-14T01:46:41.443Z,97.33
2023-03-14T01:49:17.716Z,97.55
2023-03-14T01:52:04.848Z,97.82
2023-03-14T01:55:00.098Z,97.42
2023-03-14T01:57:30.953Z,97.62
2023-03-14T02:00:13.031Z,97.83
2023-03-14T02:02:42.101Z,97.80
2023-03-14T02:05:09.227Z,97.69
2023-03-14T02:07:43.404Z,97.96
2023-03-14T02:10:10.891Z,98.03
2023-03-14T02:12:38.154Z,97.63
2023-03-14T02:15:05.418Z,98.51
2023-03-14T02:17:32.087Z,98.05
2023-03-14T02:20:31.804Z,98.25
2023-03-14T02:22:58.465Z,98.61
2023-03-14T02:25:54.576Z,98.39
2023-03-14T02:28:21.524Z,98.15
2023-03-14T02:30:48.311Z,98.33
2023-03-14T02:33:19.929Z,98.46
2023-03-14T02:36:03.764Z,98.28
2023-03-14T02:38:49.315Z,97.84
2023-03-14T02:41:16.588Z,98.08
2023-03-14T02:43:43.176Z,98.14
2023-03-14T02:46:12.190Z,98.12
2023-03-14T02:48:44.909Z,98.01
2023-03-14T02:51:11.802Z,98.05
2023-03-14T02:53:39.151Z,98.44
2023-03-14T02:56:06.539Z,98.29
2023-03-14T02:58:33.321Z,98.38
2023-03-14T03:00:59.969Z,98.31
2023-03-14T03:03:26.682Z,98.47
2023-03-14T03:05:54.973Z,98.50
2023-03-14T03:08:23.581Z,98.74
2023-03-14T03:10:50.687Z,99.11
2023-03-14T03:13:17.861Z,98.57
2023-03-14T03:15:44.874Z,98.22
2023-03-14T03:18:12.368Z,97.44
2023-03-14T03:20:39.440Z,97.54
2023-03-14T03:23:06.331Z,97.44
2023-03-14T03:25:32.991Z,97.90
2023-03-14T03:28:00.520Z,97.66
2023-03-14T03:30:27.525Z,97.63
2023-03-14T03:32:54.157Z,97.28
2023-03-14T03:35:20.969Z,97.12
2023-03-14T03:37:47.600Z,96.82
2023-03-14T03:40:14.283Z,96.71
2023-03-14T03:42:40.911Z,96.22
2023-03-14T03:45:08.394Z,96.61
2023-03-14T03:47:34.956Z,96.28
2023-03-14T03:50:01.571Z,96.59
2023-03-14T03:52:28.213Z,96.96
2023-03-14T03:54:54.850Z,96.39
2023-03-14T03:57:21.708Z,96.46
2023-03-14T03:59:48.329Z,96.79
2023-03-14T04:02:14.983Z,96.98
2023-03-14T04:04:41.773Z,96.76
2023-03-14T04:07:08.689Z,97.88
2023-03-14T04:09:35.325Z,98.30
2023-03-14T04:12:02.058Z,98.43
2023-03-14T04:14:28.810Z,98.54
2023-03-14T04:16:55.446Z,98.78
2023-03-14T04:19:22.358Z,99.30
2023-03-14T04:21:49.010Z,100.00
2023-03-14T04:24:15.841Z,100.00
2023-03-14T04:26:42.493Z,100.00
2023-03-14T04:29:09.514Z,100.00
2023-03-14T04:31:36.794Z,100.00
2023-03-14T04:34:03.425Z,100.00
2023-03-14T04:36:30.050Z,100.00
2023-03-14T04:38:56.648Z,100.00
2023-03-14T04:41:23.309Z,100.00
2023-03-14T04:43:50.117Z,100.00
2023-03-14T04:46:16.919Z,100.00
2023-03-14T04:48:43.844Z,100.00
2023-03-14T04:51:10.674Z,100.00
2023-03-14T04:53:38.272Z,100.00
2023-03-14T04:56:05.640Z,100.00
2023-03-14T04:58:32.271Z,100.00
2023-03-14T05:01:03.933Z,100.00
2023-03-14T05:03:30.526Z,100.00
2023-03-14T05:05:58.582Z,100.00
2023-03-14T05:08:25.268Z,100.00
2023-03-14T05:10:56.658Z,100.00
2023-03-14T05:13:24.888Z,99.42
2023-03-14T05:15:51.874Z,100.00
2023-03-14T05:18:19.633Z,99.81
2023-03-14T05:20:46.299Z,100.00
2023-03-14T05:23:12.932Z,99.68
2023-03-14T05:25:39.567Z,99.83
2023-03-14T05:28:06.207Z,99.38
2023-03-14T05:30:33.545Z,99.13
2023-03-14T05:33:00.211Z,98.73
2023-03-14T05:35:27.434Z,98.81
2023-03-14T05:37:54.014Z,98.90
2023-03-14T05:40:20.640Z,99.02
2023-03-14T05:42:47.371Z,98.23
2023-03-14T05:45:13.960Z,98.85
2023-03-14T05:47:40.530Z,98.51
2023-03-14T05:50:07.938Z,98.23
2023-03-14T05:52:34.754Z,97.97
2023-03-14T05:55:01.318Z,98.12
2023-03-14T05:57:27.934Z,98.34
2023-03-14T05:59:54.566Z,97.97
2023-03-14T06:02:21.291Z,97.78
2023-03-14T06:04:47.884Z,97.98
2023-03-14T06:07:14.498Z,98.26
2023-03-14T06:09:41.161Z,98.21
2023-03-14T06:12:08.259Z,98.23
2023-03-14T06:14:34.867Z,97.99
2023-03-14T06:17:01.611Z,98.38
2023-03-14T06:19:28.389Z,98.75
2023-03-14T06:21:55.088Z,98.57
2023-03-14T06:24:21.687Z,98.20
2023-03-14T06:26:48.416Z,98.51
2023-03-14T06:29:15.264Z,98.70
2023-03-14T06:31:41.933Z,98.70
2023-03-14T06:34:08.779Z,100.00
2023-03-14T06:36:35.369Z,100.00
2023-03-14T06:39:01.950Z,100.00
2023-03-14T06:41:28.610Z,100.00
2023-03-14T06:43:56.492Z,100.00
2023-03-14T06:46:23.315Z,100.00
2023-03-14T06:48:50.148Z,100.00
2023-03-14T06:51:16.877Z,100.00
2023-03-14T06:53:43.455Z,99.95
2023-03-14T06:56:10.404Z,99.88
2023-03-14T06:58:37.120Z,99.71
2023-03-14T07:01:04.107Z,99.99
2023-03-14T07:03:30.893Z,99.81
2023-03-14T07:05:57.794Z,99.02
2023-03-14T07:08:24.447Z,99.10
2023-03-14T07:10:51.150Z,98.91
2023-03-14T07:13:17.738Z,98.52
2023-03-14T07:15:44.491Z,98.82
2023-03-14T07:18:11.243Z,98.64
2023-03-14T07:20:37.814Z,98.65
2023-03-14T07:23:04.502Z,98.30
2023-03-14T07:25:31.179Z,97.29
2023-03-14T07:27:57.903Z,97.09
2023-03-14T07:30:24.710Z,97.26
2023-03-14T07:32:51.885Z,97.08
2023-03-14T07:35:19.290Z,97.78
2023-03-14T07:37:45.976Z,97.05
2023-03-14T07:40:16.144Z,96.94
2023-03-14T07:42:43.590Z,96.39
2023-03-14T07:45:12.405Z,96.52
2023-03-14T07:47:39.691Z,95.97
2023-03-14T07:50:07.009Z,95.10
2023-03-14T07:52:33.674Z,95.37
2023-03-14T07:55:00.420Z,95.69
2023-03-14T07:57:27.099Z,95.54
2023-03-14T07:59:54.039Z,94.91
2023-03-14T08:02:23.722Z,94.12
2023-03-14T08:04:50.677Z,93.85
2023-03-14T08:07:17.789Z,94.00
2023-03-14T08:09:44.528Z,93.22
2023-03-14T08:12:11.225Z,92.95
2023-03-14T08:14:37.834Z,92.67
2023-03-14T08:17:06.487Z,92.39
2023-03-14T08:19:33.078Z,92.17
2023-03-14T08:21:59.736Z,92.55
2023-03-14T08:24:26.601Z,92.38
2023-03-14T08:26:53.433Z,92.84
2023-03-14T08:29:20.316Z,93.69
2023-03-14T08:31:47.204Z,93.54
2023-03-14T08:34:13.864Z,93.88
2023-03-14T08:36:40.556Z,94.80
2023-03-14T08:39:08.926Z,94.09
2023-03-14T08:41:41.387Z,95.42
2023-03-14T08:44:09.232Z,95.55
2023-03-14T08:46:36.069Z,96.04
2023-03-14T08:49:02.719Z,96.27
2023-03-14T08:51:29.415Z,96.51
2023-03-14T08:53:55.983Z,97.02
2023-03-14T08:56:24.864Z,97.76
2023-03-14T08:58:52.531Z,97.58
2023-03-14T09:01:20.535Z,97.75
2023-03-14T09:03:48.652Z,97.97
2023-03-14T09:06:15.283Z,97.99
2023-03-14T09:08:41.877Z,98.39
2023-03-14T09:11:10.112Z,99.10
2023-03-14T09:13:37.720Z,100.00
2023-03-14T09:16:04.821Z,100.00
2023-03-14T09:18:31.460Z,99.13
2023-03-14T09:20:58.061Z,99.38
2023-03-14T09:23:24.774Z,99.42
2023-03-14T09:25:57.586Z,99.08
2023-03-14T09:28:24.505Z,99.13
2023-03-14T09:30:51.089Z,99.35
2023-03-14T09:33:19.081Z,99.46
2023-03-14T09:35:45.642Z,99.69
2023-03-14T09:38:12.370Z,100.00
2023-03-14T09:40:39.749Z,100.00
2023-03-14T09:43:06.673Z,100.00
2023-03-14T09:45:37.489Z,100.00
2023-03-14T09:48:05.757Z,100.00
2023-03-14T09:50:39.073Z,100.00
2023-03-14T09:53:14.270Z,100.00
2023-03-14T09:55:41.571Z,100.00
2023-03-14T09:58:13.834Z,100.00
2023-03-14T10:00:40.890Z,100.00
2023-03-14T10:03:34.445Z,100.00
2023-03-14T10:06:01.365Z,100.00
2023-03-14T10:08:28.025Z,100.00
2023-03-14T10:10:55.889Z,100.00
2023-03-14T10:13:28.951Z,100.00
2023-03-14T10:16:02.331Z,100.00
2023-03-14T10:18:31.402Z,100.00
2023-03-14T10:21:21.118Z,100.00
2023-03-14T10:23:49.734Z,100.00
2023-03-14T10:26:19.794Z,100.00
2023-03-14T10:28:48.904Z,100.00
2023-03-14T10:31:16.488Z,100.00
2023-03-14T10:33:43.280Z,100.00
2023-03-14T10:36:23.059Z,99.41
2023-03-14T10:38:49.781Z,98.89
2023-03-14T10:41:27.066Z,97.85
2023-03-14T10:44:01.349Z,98.34
2023-03-14T10:46:30.460Z,99.81
2023-03-14T10:48:57.139Z,99.35
2023-03-14T10:51:29.476Z,99.63
2023-03-14T10:54:04.885Z,100.00
2023-03-14T10:56:36.267Z,99.52
2023-03-14T10:59:03.798Z,98.40
2023-03-14T11:02:13.782Z,97.48
2023-03-14T11:05:05.635Z,97.21
2023-03-14T11:07:44.298Z,98.32
2023-03-14T11:10:43.901Z,98.34
2023-03-14T11:13:27.522Z,98.96
2023-03-14T11:16:21.649Z,98.90
2023-03-14T11:19:08.587Z,98.21
2023-03-14T11:21:56.808Z,98.94
2023-03-14T11:24:49.960Z,100.00
2023-03-14T11:27:44.732Z,100.00
2023-03-14T11:30:48.092Z,100.00
2023-03-14T11:33:17.398Z,100.00
2023-03-14T11:35:50.635Z,100.00
2023-03-14T11:38:30.335Z,100.00
2023-03-14T11:40:58.808Z,100.00
2023-03-14T11:43:36.112Z,100.00
2023-03-14T11:46:06.987Z,100.00
2023-03-14T11:49:04.692Z,100.00
2023-03-14T11:51:39.792Z,100.00
2023-03-14T11:54:16.019Z,100.00
2023-03-14T11:56:48.978Z,100.00
2023-03-14T11:59:50.053Z,100.00
2023-03-14T12:02:40.826Z,100.00
2023-03-14T12:05:26.119Z,100.00
2023-03-14T12:08:08.182Z,100.00
2023-03-14T12:10:46.513Z,100.00
2023-03-14T12:13:14.771Z,100.00
2023-03-14T12:16:02.193Z,100.00
2023-03-14T12:18:39.752Z,100.00
2023-03-14T12:21:12.446Z,100.00
2023-03-14T12:23:50.083Z,100.00
2023-03-14T12:26:20.145Z,100.00
2023-03-14T12:29:11.140Z,100.00
2023-03-14T12:31:38.760Z,100.00
2023-03-14T12:34:26.593Z,100.00
2023-03-14T12:37:00.047Z,100.00
2023-03-14T12:39:49.270Z,100.00
2023-03-14T12:42:44.561Z,100.00
2023-03-14T12:45:31.909Z,100.00
2023-03-14T12:48:24.796Z,100.00
2023-03-14T12:50:56.393Z,100.00
2023-03-14T12:54:01.880Z,100.00
2023-03-14T12:56:59.506Z,100.00
2023-03-14T12:59:56.237Z,100.00
2023-03-14T13:02:45.560Z,100.00
2023-03-14T13:05:18.015Z,100.00
2023-03-14T13:08:05.864Z,100.00
2023-03-14T13:10:42.963Z,100.00
2023-03-14T13:13:21.796Z,100.00
2023-03-14T13:15:52.305Z,100.00
2023-03-14T13:18:28.017Z,100.00
2023-03-14T13:20:56.952Z,100.00
2023-03-14T13:23:28.904Z,100.00
2023-03-14T13:25:56.130Z,100.00
2023-03-14T13:28:23.171Z,100.00
2023-03-14T13:30:52.328Z,100.00
2023-03-14T13:33:21.125Z,100.00
2023-03-14T13:35:50.359Z,100.00
2023-03-14T13:38:20.500Z,100.00
2023-03-14T13:40:48.076Z,100.00
2023-03-14T13:43:25.184Z,100.00
2023-03-14T13:45:57.626Z,100.00
2023-03-14T13:48:28.353Z,100.00
2023-03-14T13:50:57.474Z,100.00
2023-03-14T13:53:24.794Z,100.00
2023-03-14T13:55:52.589Z,100.00
2023-03-14T13:58:28.929Z,100.00
2023-03-14T14:00:58.420Z,100.00
2023-03-14T14:03:25.266Z,100.00
2023-03-14T14:05:51.890Z,100.00
2023-03-14T14:08:18.634Z,100.00
2023-03-14T14:10:48.358Z,100.00
2023-03-14T14:13:19.802Z,100.00
2023-03-14T14:15:48.439Z,100.00
2023-03-14T14:18:17.768Z,100.00
2023-03-14T14:20:47.640Z,100.00
2023-03-14T14:23:17.246Z,100.00
2023-03-14T14:25:44.530Z,100.00
2023-03-14T14:28:31.225Z,100.00
2023-03-14T14:31:17.313Z,100.00
2023-03-14T14:33:46.413Z,100.00
2023-03-14T14:36:23.611Z,100.00
2023-03-14T14:38:56.848Z,100.00
2023-03-14T14:41:28.416Z,100.00
2023-03-14T14:43:55.585Z,100.00
2023-03-14T14:46:22.719Z,100.00
2023-03-14T14:48:52.659Z,99.32
2023-03-14T14:51:28.993Z,98.45
2023-03-14T14:54:12.211Z,96.40
2023-03-14T14:56:38.995Z,98.13
2023-03-14T14:59:08.164Z,99.87
2023-03-14T15:01:40.572Z,98.79
2023-03-14T15:04:13.669Z,100.00
2023-03-14T15:06:41.158Z,100.00
2023-03-14T15:09:11.255Z,96.97
2023-03-14T15:11:38.150Z,96.54
2023-03-14T15:14:04.974Z,94.72
2023-03-14T15:16:33.047Z,94.15
2023-03-14T15:19:03.203Z,92.16
2023-03-14T15:21:34.759Z,93.46
2023-03-14T15:24:01.412Z,93.10
2023-03-14T15:26:29.191Z,94.87
2023-03-14T15:28:55.809Z,94.07
2023-03-14T15:31:22.636Z,93.77
2023-03-14T15:33:49.513Z,93.52
2023-03-14T15:36:27.624Z,93.93
2023-03-14T15:38:55.643Z,93.19
2023-03-14T15:41:23.067Z,94.63
2023-03-14T15:43:49.916Z,94.51
2023-03-14T15:46:18.440Z,94.21
2023-03-14T15:48:46.264Z,93.78
2023-03-14T15:51:12.908Z,93.23
2023-03-14T15:53:39.964Z,92.22
2023-03-14T15:56:08.045Z,93.61
2023-03-14T15:58:35.202Z,93.37
2023-03-14T16:01:03.067Z,93.79
2023-03-14T16:03:30.566Z,94.27
2023-03-14T16:06:36.533Z,93.25
2023-03-14T16:09:03.176Z,92.41
2023-03-14T16:11:29.816Z,94.04
2023-03-14T16:13:56.430Z,93.75
2023-03-14T16:16:23.074Z,94.14
2023-03-14T16:18:49.723Z,94.86
2023-03-14T16:21:20.154Z,94.01
2023-03-14T16:23:46.984Z,93.30
2023-03-14T16:26:16.892Z,94.98
2023-03-14T16:28:44.246Z,96.19
2023-03-14T16:31:14.314Z,98.63
2023-03-14T16:33:41.092Z,96.64
2023-03-14T16:36:09.235Z,94.89
2023-03-14T16:38:36.973Z,95.13
2023-03-14T16:41:17.925Z,94.82
2023-03-14T16:43:45.119Z,93.90
2023-03-14T16:46:14.614Z,93.44
2023-03-14T16:48:41.354Z,92.46
2023-03-14T16:51:08.110Z,90.46
2023-03-14T16:53:34.729Z,88.91
2023-03-14T16:56:01.646Z,88.17
2023-03-14T16:58:28.493Z,90.93
2023-03-14T17:00:58.160Z,89.14
2023-03-14T17:03:25.398Z,88.25
2023-03-14T17:05:53.136Z,88.11
2023-03-14T17:08:21.199Z,87.87
2023-03-14T17:10:47.972Z,87.67
2023-03-14T17:13:14.776Z,89.02
2023-03-14T17:15:46.000Z,90.57
2023-03-14T17:18:12.737Z,89.88
2023-03-14T17:20:41.253Z,89.37
2023-03-14T17:23:08.236Z,89.48
2023-03-14T17:25:36.369Z,88.93
2023-03-14T17:28:03.016Z,88.02
2023-03-14T17:30:29.816Z,88.69
2023-03-14T17:32:57.633Z,89.46
2023-03-14T17:35:25.408Z,88.47
2023-03-14T17:37:52.058Z,88.99
2023-03-14T17:40:18.932Z,88.96
2023-03-14T17:42:45.575Z,87.89
2023-03-14T17:45:12.321Z,88.76
2023-03-14T17:47:39.042Z,89.81
2023-03-14T17:50:06.280Z,90.39
2023-03-14T17:52:33.728Z,89.31
2023-03-14T17:55:00.885Z,90.14
2023-03-14T17:57:28.206Z,91.32
2023-03-14T17:59:55.012Z,90.52
2023-03-14T18:02:23.264Z,91.59
2023-03-14T18:04:50.274Z,92.59
2023-03-14T18:07:16.906Z,93.47
2023-03-14T18:09:43.586Z,93.94
2023-03-14T18:12:10.330Z,93.18
2023-03-14T18:14:37.429Z,94.76
2023-03-14T18:17:04.777Z,94.74
2023-03-14T18:19:32.521Z,95.94
2023-03-14T18:21:59.146Z,95.76
2023-03-14T18:24:27.769Z,92.51
2023-03-14T18:26:55.468Z,92.69
2023-03-14T18:29:22.167Z,93.50
2023-03-14T18:31:48.967Z,93.64
2023-03-14T18:34:15.821Z,95.65
2023-03-14T18:36:42.499Z,95.25
2023-03-14T18:39:10.550Z,95.60
2023-03-14T18:41:37.665Z,93.96
2023-03-14T18:44:04.643Z,94.54
2023-03-14T18:46:31.454Z,93.98
2023-03-14T18:48:58.594Z,95.21
2023-03-14T18:51:26.994Z,95.50
2023-03-14T18:54:02.805Z,94.78
2023-03-14T18:56:33.575Z,95.03
2023-03-14T18:59:00.127Z,95.17
2023-03-14T19:01:31.397Z,95.66
2023-03-14T19:04:02.224Z,94.72
2023-03-14T19:06:32.148Z,96.28
2023-03-14T19:08:59.729Z,96.48
2023-03-14T19:11:26.955Z,94.82
2023-03-14T19:13:55.109Z,94.84
2023-03-14T19:16:26.239Z,94.13
2023-03-14T19:18:52.883Z,94.05
2023-03-14T19:21:31.054Z,94.94
2023-03-14T19:23:57.776Z,95.88
2023-03-14T19:26:24.918Z,96.73
2023-03-14T19:28:53.173Z,97.18
2023-03-14T19:31:20.262Z,96.71
2023-03-14T19:33:47.516Z,96.65
2023-03-14T19:36:27.658Z,95.43
2023-03-14T19:38:54.533Z,96.54
2023-03-14T19:41:23.550Z,97.16
2023-03-14T19:43:50.954Z,97.46
2023-03-14T19:46:18.180Z,96.25
2023-03-14T19:48:46.234Z,97.33
2023-03-14T19:51:13.988Z,97.65
2023-03-14T19:53:42.114Z,96.12
2023-03-14T19:56:12.369Z,93.84
2023-03-14T19:58:40.169Z,93.02
2023-03-14T20:01:08.257Z,92.80
2023-03-14T20:03:37.667Z,93.88
2023-03-14T20:06:09.101Z,94.53
2023-03-14T20:08:36.109Z,92.90
2023-03-14T20:11:06.965Z,93.16
2023-03-14T20:13:33.732Z,93.15
2023-03-14T20:16:04.566Z,94.26
2023-03-14T20:18:31.578Z,95.21
2023-03-14T20:20:58.433Z,93.76
2023-03-14T20:23:26.310Z,94.93
2023-03-14T20:25:56.719Z,95.79
2023-03-14T20:28:23.633Z,96.90
2023-03-14T20:30:50.479Z,96.88
2023-03-14T20:33:19.907Z,95.99
2023-03-14T20:35:54.135Z,96.93
2023-03-14T20:38:20.755Z,96.91
2023-03-14T20:40:47.401Z,98.12
2023-03-14T20:43:14.014Z,98.20
2023-03-14T20:45:40.634Z,97.94
2023-03-14T20:48:07.242Z,97.33
2023-03-14T20:50:33.855Z,96.84
2023-03-14T20:53:02.379Z,97.40
2023-03-14T20:55:29.294Z,98.01
2023-03-14T20:57:56.963Z,98.36
2023-03-14T21:00:23.906Z,98.36
2023-03-14T21:02:50.470Z,98.04
2023-03-14T21:05:17.437Z,98.06
2023-03-14T21:07:45.434Z,99.75
2023-03-14T21:10:13.084Z,94.77
2023-03-14T21:12:40.909Z,91.37
2023-03-14T21:15:08.759Z,92.48
2023-03-14T21:17:35.389Z,88.77
2023-03-14T21:20:02.153Z,85.17
2023-03-14T21:22:29.762Z,85.60
2023-03-14T21:24:56.672Z,85.61
2023-03-14T21:27:23.910Z,85.04
2023-03-14T21:29:50.590Z,84.05
2023-03-14T21:32:17.622Z,81.94
2023-03-14T21:34:44.632Z,81.80
2023-03-14T21:37:11.763Z,80.18
2023-03-14T21:39:38.435Z,80.72
2023-03-14T21:42:05.278Z,83.01
2023-03-14T21:44:37.395Z,85.95
2023-03-14T21:47:08.328Z,87.86
2023-03-14T21:49:38.510Z,89.52
2023-03-14T21:52:09.998Z,88.48
2023-03-14T21:54:36.921Z,86.79
2023-03-14T21:57:05.368Z,87.20
2023-03-14T21:59:34.272Z,88.73
2023-03-14T22:02:02.966Z,84.95
2023-03-14T22:04:34.975Z,82.31
2023-03-14T22:07:07.219Z,77.70
2023-03-14T22:09:34.346Z,76.94
2023-03-14T22:12:01.091Z,76.80
2023-03-14T22:14:27.703Z,76.60
2023-03-14T22:16:54.751Z,77.57
2023-03-14T22:19:22.241Z,76.69
2023-03-14T22:21:49.120Z,78.28
2023-03-14T22:24:16.004Z,81.28
2023-03-14T22:26:42.862Z,80.53
2023-03-14T22:29:09.891Z,82.25
2023-03-14T22:31:37.273Z,83.70
2023-03-14T22:34:04.012Z,85.31
2023-03-14T22:36:30.861Z,83.95
2023-03-14T22:38:58.614Z,84.40
2023-03-14T22:41:25.306Z,81.48
2023-03-14T22:43:51.986Z,81.07
2023-03-14T22:46:18.788Z,81.33
2023-03-14T22:48:45.393Z,82.04
2023-03-14T22:51:12.871Z,82.95
2023-03-14T22:53:39.677Z,81.57
2023-03-14T22:56:07.702Z,82.71
2023-03-14T22:58:35.104Z,83.30
2023-03-14T23:01:02.248Z,82.49
2023-03-14T23:03:29.273Z,84.82
2023-03-14T23:05:55.904Z,84.67
2023-03-14T23:08:22.639Z,84.70
2023-03-14T23:10:49.300Z,81.59
2023-03-14T23:13:15.968Z,82.05
2023-03-14T23:15:43.409Z,81.39
2023-03-14T23:18:12.215Z,82.64
2023-03-14T23:20:38.931Z,80.80
2023-03-14T23:23:08.596Z,81.57
2023-03-14T23:25:44.839Z,82.18
2023-03-14T23:28:19.286Z,82.97
2023-03-14T23:30:46.026Z,84.97
2023-03-14T23:33:12.640Z,85.04
2023-03-14T23:35:39.313Z,85.18
2023-03-14T23:38:06.018Z,85.13
2023-03-14T23:40:32.674Z,83.17
2023-03-14T23:42:59.292Z,81.45
2023-03-14T23:45:25.835Z,82.87
2023-03-14T23:47:52.404Z,82.94
2023-03-14T23:50:18.980Z,85.28
2023-03-14T23:52:45.676Z,83.11
2023-03-14T23:55:12.555Z,83.72
2023-03-14T23:57:39.424Z,84.27
